Time;durP1;ratioP1;P1;durP2;ratioP2;P2;SDS_P1;SDS_P2;PMS_P1;PMS_P2;Temp;Humidity;BMP_temperature;BMP_pressure;BME280_temperature;BME280_humidity;BME280_pressure;Samples;Min_cycle;Max_cycle;Signal;HPM_P1;HPM_P2
2022/05/16 00:01:53;;;;;;;6.35;2.17;;;13.00;77.40;;;;;;5027270;28;20053;-49
2022/05/16 00:04:21;;;;;;;4.55;1.77;;;13.00;77.60;;;;;;5031378;28;20485;-47
2022/05/16 00:06:48;;;;;;;7.07;2.15;;;13.00;77.50;;;;;;5006615;28;20025;-49
2022/05/16 00:09:15;;;;;;;5.07;1.90;;;13.00;77.70;;;;;;5023109;28;20075;-47
2022/05/16 00:11:41;;;;;;;6.05;2.00;;;12.90;77.60;;;;;;5025399;28;20025;-46
2022/05/16 00:14:07;;;;;;;9.02;2.05;;;13.00;77.70;;;;;;5020949;28;20454;-46
2022/05/16 00:16:34;;;;;;;6.10;2.30;;;13.00;77.40;;;;;;5006313;28;20030;-46
2022/05/16 00:19:01;;;;;;;6.20;1.88;;;13.00;77.40;;;;;;5018405;28;20108;-49
2022/05/16 00:21:27;;;;;;;4.88;2.30;;;13.00;77.20;;;;;;5004891;28;20033;-46
2022/05/16 00:23:52;;;;;;;5.50;2.00;;;13.00;77.00;;;;;;5012750;28;20022;-47
2022/05/16 00:26:19;;;;;;;5.85;1.75;;;13.00;76.80;;;;;;5027632;28;20038;-49
2022/05/16 00:28:46;;;;;;;12.05;2.28;;;12.90;76.60;;;;;;5018104;28;20025;-49
2022/05/16 00:31:13;;;;;;;6.18;1.77;;;12.90;76.50;;;;;;5031521;28;20022;-47
2022/05/16 00:33:41;;;;;;;4.53;2.22;;;12.90;76.20;;;;;;5012282;28;20036;-47
2022/05/16 00:36:08;;;;;;;5.95;1.98;;;13.00;76.00;;;;;;5012541;28;20029;-46
2022/05/16 00:38:35;;;;;;;12.10;2.50;;;13.00;76.10;;;;;;5013007;28;20064;-50
2022/05/16 00:41:04;;;;;;;4.35;2.30;;;13.00;75.70;;;;;;5012384;28;20026;-47
2022/05/16 00:43:57;;;;;;;4.90;2.03;;;13.00;75.80;;;;;;5028150;28;20095;-47
2022/05/16 00:46:28;;;;;;;6.50;2.15;;;12.90;75.40;;;;;;5017290;28;20024;-46
2022/05/16 00:48:56;;;;;;;6.47;1.13;;;12.90;75.20;;;;;;5029644;28;20030;-46
2022/05/16 00:51:30;;;;;;;6.05;1.98;;;12.90;75.10;;;;;;5020479;28;20017;-46
2022/05/16 00:54:05;;;;;;;4.13;2.17;;;12.90;75.10;;;;;;5014397;28;20096;-48
2022/05/16 00:56:33;;;;;;;6.22;1.83;;;12.90;75.10;;;;;;5036611;28;20061;-47
2022/05/16 00:59:00;;;;;;;5.40;1.73;;;12.90;75.00;;;;;;5061485;28;20133;-47
2022/05/16 01:06:59;;;;;;;5.53;1.83;;;12.90;74.60;;;;;;5040524;28;20032;-47
2022/05/16 01:09:26;;;;;;;5.40;1.50;;;12.90;74.60;;;;;;5031688;28;20033;-46
2022/05/16 01:11:53;;;;;;;5.30;1.75;;;12.90;74.30;;;;;;5047237;28;20037;-49
2022/05/16 01:14:40;;;;;;;7.68;1.88;;;12.90;74.10;;;;;;5030537;28;20057;-47
2022/05/16 01:17:07;;;;;;;4.55;1.77;;;12.90;74.00;;;;;;5043691;28;20037;-49
2022/05/16 01:19:34;;;;;;;4.13;1.40;;;12.90;73.60;;;;;;5051451;28;20039;-46
2022/05/16 01:22:23;;;;;;;3.00;1.35;;;12.90;73.30;;;;;;5034656;28;20412;-47
2022/05/16 01:24:50;;;;;;;3.88;1.60;;;12.90;73.60;;;;;;5047299;28;20047;-47
2022/05/16 01:27:17;;;;;;;5.38;1.60;;;12.90;73.40;;;;;;5031574;28;20124;-47
2022/05/16 01:29:44;;;;;;;2.20;1.20;;;12.90;73.30;;;;;;5037944;28;20025;-46
2022/05/16 01:32:10;;;;;;;8.70;1.90;;;12.90;73.30;;;;;;5033655;28;20348;-46
2022/05/16 01:34:38;;;;;;;3.67;1.42;;;12.90;73.30;;;;;;5033405;28;20041;-49
2022/05/16 01:37:07;;;;;;;5.80;1.65;;;12.90;73.00;;;;;;5051201;28;20044;-48
2022/05/16 01:39:33;;;;;;;7.53;2.22;;;12.90;73.30;;;;;;5029818;28;20461;-48
2022/05/16 01:42:00;;;;;;;4.72;1.80;;;12.90;73.40;;;;;;5031312;28;20468;-46
2022/05/16 01:44:27;;;;;;;8.27;2.13;;;12.80;73.80;;;;;;5049862;28;20091;-46
2022/05/16 01:46:54;;;;;;;5.22;1.83;;;12.90;73.50;;;;;;5041658;28;20033;-48
2022/05/16 01:49:21;;;;;;;5.47;2.20;;;12.80;73.70;;;;;;5031041;28;20029;-47
2022/05/16 01:51:51;;;;;;;5.65;1.75;;;12.80;73.80;;;;;;5038956;28;20033;-46
2022/05/16 01:54:20;;;;;;;4.60;1.38;;;12.80;73.90;;;;;;5049468;28;20056;-47
2022/05/16 01:56:47;;;;;;;6.72;2.00;;;12.80;73.70;;;;;;5051322;28;20052;-46
2022/05/16 01:59:14;;;;;;;5.70;1.52;;;12.70;74.30;;;;;;5038679;28;20104;-47
2022/05/16 02:01:40;;;;;;;4.30;2.03;;;12.70;74.30;;;;;;5044247;28;20166;-50
2022/05/16 02:04:07;;;;;;;4.20;1.50;;;12.70;74.50;;;;;;5022587;28;20033;-47
2022/05/16 02:06:36;;;;;;;5.80;1.40;;;12.60;74.80;;;;;;5031722;28;20343;-49
2022/05/16 02:09:03;;;;;;;5.78;2.00;;;12.60;74.90;;;;;;5041373;28;20308;-46
2022/05/16 02:11:30;;;;;;;5.22;1.65;;;12.50;74.90;;;;;;5053929;28;20076;-47
2022/05/16 02:13:57;;;;;;;4.47;1.52;;;12.50;74.80;;;;;;5054437;28;20370;-48
2022/05/16 02:16:30;;;;;;;5.38;1.90;;;12.50;74.90;;;;;;5054898;28;20043;-46
2022/05/16 02:18:57;;;;;;;5.43;1.75;;;12.50;75.10;;;;;;5045822;28;20104;-46
2022/05/16 02:27:19;;;;;;;4.53;1.50;;;12.40;75.80;;;;;;5012909;28;20065;-46
2022/05/16 02:29:46;;;;;;;4.60;2.22;;;12.40;75.90;;;;;;4998298;28;20126;-47
2022/05/16 02:32:13;;;;;;;6.35;1.98;;;12.40;76.00;;;;;;4976982;28;20157;-49
2022/05/16 02:34:39;;;;;;;5.72;1.90;;;12.40;75.80;;;;;;5011325;28;20030;-46
2022/05/16 02:37:07;;;;;;;6.00;1.67;;;12.40;75.90;;;;;;5007575;28;20117;-48
2022/05/16 02:39:34;;;;;;;3.40;1.50;;;12.40;75.90;;;;;;5008043;28;20039;-47
2022/05/16 02:42:02;;;;;;;3.15;1.88;;;12.30;76.00;;;;;;4992895;28;20034;-48
2022/05/16 02:44:29;;;;;;;7.22;2.50;;;12.30;76.00;;;;;;4993962;28;20046;-47
2022/05/16 02:46:55;;;;;;;5.30;2.00;;;12.30;76.20;;;;;;5007076;28;20038;-47
2022/05/16 02:49:28;;;;;;;4.80;1.63;;;12.30;76.30;;;;;;5001167;28;20039;-46
2022/05/16 02:51:55;;;;;;;5.13;1.80;;;12.20;76.40;;;;;;4976692;28;20043;-47
2022/05/16 02:54:20;;;;;;;4.47;2.00;;;12.20;76.40;;;;;;5002009;28;20110;-46
2022/05/16 02:56:46;;;;;;;4.03;1.48;;;12.20;77.00;;;;;;5009048;28;20042;-48
2022/05/16 02:59:13;;;;;;;3.90;1.90;;;12.10;76.80;;;;;;5033975;28;20034;-48
2022/05/16 03:01:41;;;;;;;5.90;1.80;;;12.10;76.70;;;;;;5050975;28;20030;-50
2022/05/16 03:04:26;;;;;;;6.20;2.22;;;12.10;76.80;;;;;;5017333;28;20069;-47
2022/05/16 03:06:51;;;;;;;5.72;2.10;;;12.10;76.40;;;;;;5015418;28;20092;-47
2022/05/16 03:09:17;;;;;;;5.70;2.30;;;12.20;76.30;;;;;;5015995;28;20406;-48
2022/05/16 03:11:47;;;;;;;4.88;1.95;;;12.10;75.80;;;;;;5014358;28;20419;-47
2022/05/16 03:14:31;;;;;;;3.60;1.80;;;12.20;75.80;;;;;;5014767;28;20049;-48
2022/05/16 03:16:58;;;;;;;5.90;1.90;;;12.20;75.90;;;;;;5030271;28;20029;-47
2022/05/16 03:19:25;;;;;;;5.90;1.80;;;12.20;76.10;;;;;;5013157;28;20065;-49
2022/05/16 03:21:52;;;;;;;5.80;2.08;;;12.20;76.20;;;;;;5026379;28;20601;-48
2022/05/16 03:24:19;;;;;;;5.40;2.25;;;12.20;76.10;;;;;;5049336;28;20064;-51
2022/05/16 03:26:46;;;;;;;6.05;1.73;;;12.20;75.80;;;;;;5049478;28;20038;-47
2022/05/16 03:29:16;;;;;;;11.73;4.05;;;12.10;75.90;;;;;;5021643;28;20443;-48
2022/05/16 03:31:45;;;;;;;5.63;1.73;;;12.10;76.20;;;;;;5033570;28;20454;-47
2022/05/16 03:34:15;;;;;;;6.38;1.45;;;12.10;76.20;;;;;;5033024;28;20044;-51
2022/05/16 03:36:42;;;;;;;7.40;2.15;;;12.10;76.40;;;;;;5032543;28;20354;-48
2022/05/16 03:41:56;;;;;;;4.80;2.00;;;12.10;76.50;;;;;;5033378;28;20037;-46
2022/05/16 03:44:23;;;;;;;4.93;2.10;;;12.10;76.60;;;;;;5032875;28;20026;-47
2022/05/16 03:46:50;;;;;;;5.35;2.22;;;12.10;76.30;;;;;;5033265;28;20026;-48
2022/05/16 03:49:18;;;;;;;6.75;1.80;;;12.10;76.00;;;;;;5048653;28;20340;-50
2022/05/16 03:51:45;;;;;;;3.53;1.38;;;12.20;75.90;;;;;;5048820;28;20108;-49
2022/05/16 03:54:12;;;;;;;6.03;1.92;;;12.10;75.80;;;;;;5033356;28;20104;-47
2022/05/16 03:56:38;;;;;;;3.83;1.73;;;12.20;75.80;;;;;;5047376;28;20049;-47
2022/05/16 03:59:05;;;;;;;5.57;1.70;;;12.20;76.00;;;;;;5033604;28;20029;-46
2022/05/16 04:01:32;;;;;;;7.18;2.40;;;12.20;76.20;;;;;;5046455;28;20473;-47
2022/05/16 04:03:58;;;;;;;5.68;1.83;;;12.20;76.10;;;;;;5034534;28;20036;-47
2022/05/16 04:06:27;;;;;;;4.85;1.95;;;12.20;76.10;;;;;;5051084;28;20031;-47
2022/05/16 04:08:55;;;;;;;3.58;1.50;;;12.20;76.10;;;;;;5051589;28;20115;-46
2022/05/16 04:11:21;;;;;;;4.63;2.00;;;12.20;76.30;;;;;;5042117;28;20037;-47
2022/05/16 04:13:48;;;;;;;5.13;1.83;;;12.20;76.10;;;;;;5034083;28;20048;-47
2022/05/16 04:16:15;;;;;;;4.40;1.65;;;12.30;75.80;;;;;;5052293;28;20047;-46
2022/05/16 04:18:44;;;;;;;8.85;2.63;;;12.30;75.80;;;;;;5034953;28;20464;-48
2022/05/16 04:21:11;;;;;;;5.80;2.00;;;12.40;76.00;;;;;;5051285;28;20025;-49
2022/05/16 04:23:38;;;;;;;7.13;2.15;;;12.40;75.60;;;;;;5032677;28;20030;-48
2022/05/16 04:26:06;;;;;;;6.55;1.60;;;12.40;75.20;;;;;;5039834;28;20021;-46
2022/05/16 04:28:33;;;;;;;5.82;1.65;;;12.50;75.60;;;;;;5049275;28;20029;-47
2022/05/16 04:30:59;;;;;;;5.68;1.90;;;12.50;75.50;;;;;;5034249;28;20035;-47
2022/05/16 04:33:27;;;;;;;3.83;1.90;;;12.60;75.30;;;;;;5046984;28;20044;-48
2022/05/16 04:35:53;;;;;;;7.30;2.65;;;12.60;75.30;;;;;;5034537;28;20047;-47
2022/05/16 04:38:20;;;;;;;5.60;1.88;;;12.70;75.00;;;;;;5047261;28;20029;-48
2022/05/16 04:43:34;;;;;;;6.00;2.45;;;12.90;74.90;;;;;;5049801;28;20035;-48
2022/05/16 04:46:05;;;;;;;5.05;2.00;;;12.90;74.80;;;;;;5042756;28;20087;-46
2022/05/16 04:48:32;;;;;;;6.75;2.95;;;12.90;75.00;;;;;;5042894;28;20033;-47
2022/05/16 04:51:01;;;;;;;4.40;2.30;;;12.90;75.00;;;;;;5031639;28;20036;-48
2022/05/16 04:53:28;;;;;;;3.57;2.07;;;12.90;74.90;;;;;;5035624;28;20028;-50
2022/05/16 04:55:56;;;;;;;7.47;2.20;;;12.90;75.30;;;;;;5049438;28;20083;-48
2022/05/16 04:58:23;;;;;;;6.43;2.30;;;12.90;75.00;;;;;;5064015;28;20052;-50
2022/05/16 05:00:50;;;;;;;6.00;2.63;;;13.00;75.00;;;;;;5027127;28;20037;-47
2022/05/16 05:03:17;;;;;;;4.75;2.28;;;13.10;75.30;;;;;;5063834;28;20034;-49
2022/05/16 05:05:43;;;;;;;8.45;3.30;;;13.10;75.10;;;;;;5032251;28;20022;-50
2022/05/16 05:08:10;;;;;;;6.60;2.20;;;13.10;74.80;;;;;;5031605;28;20021;-48
2022/05/16 05:16:15;;;;;;;7.20;2.25;;;13.30;74.60;;;;;;5031727;28;20045;-47
2022/05/16 05:18:43;;;;;;;6.28;2.17;;;13.30;74.40;;;;;;5031421;28;20104;-50
2022/05/16 05:21:09;;;;;;;5.90;2.17;;;13.40;74.40;;;;;;5031794;28;20091;-50
2022/05/16 05:23:38;;;;;;;3.67;1.70;;;13.40;74.20;;;;;;5031355;28;20538;-48
2022/05/16 05:26:06;;;;;;;4.95;2.20;;;13.40;74.00;;;;;;5031819;28;20378;-47
2022/05/16 05:28:33;;;;;;;7.05;2.70;;;13.40;74.00;;;;;;5032979;28;20324;-50
2022/05/16 05:30:59;;;;;;;8.57;2.50;;;13.50;74.30;;;;;;5031512;28;20025;-47
2022/05/16 05:33:25;;;;;;;8.15;2.92;;;13.50;73.80;;;;;;5026029;28;20052;-47
2022/05/16 05:35:56;;;;;;;5.85;2.45;;;13.60;73.70;;;;;;5031029;28;20335;-47
2022/05/16 05:38:21;;;;;;;4.15;2.17;;;13.80;73.20;;;;;;5031291;28;20068;-47
2022/05/16 05:40:50;;;;;;;7.35;2.08;;;14.00;72.90;;;;;;5046840;28;20085;-48
2022/05/16 05:43:17;;;;;;;10.82;2.65;;;14.30;71.70;;;;;;5029319;28;20658;-49
2022/05/16 05:45:44;;;;;;;5.50;2.50;;;14.40;71.10;;;;;;5015411;28;20327;-47
2022/05/16 05:48:12;;;;;;;8.77;2.55;;;14.60;70.60;;;;;;5014042;28;20061;-50
2022/05/16 05:50:38;;;;;;;4.72;1.90;;;14.90;69.60;;;;;;5017926;28;20577;-49
2022/05/16 05:53:05;;;;;;;4.28;2.00;;;15.00;69.20;;;;;;5047497;28;20069;-52
2022/05/16 05:55:32;;;;;;;7.03;1.98;;;15.00;69.20;;;;;;5015087;28;20041;-48
2022/05/16 05:57:59;;;;;;;7.53;2.65;;;14.90;69.10;;;;;;5032515;28;20390;-48
2022/05/16 06:00:26;;;;;;;4.93;2.13;;;15.00;69.40;;;;;;5050894;28;20029;-47
2022/05/16 06:02:51;;;;;;;7.00;2.67;;;15.10;69.30;;;;;;5033429;28;20045;-47
2022/05/16 06:05:21;;;;;;;5.65;2.63;;;15.10;69.50;;;;;;5033816;28;20029;-45
2022/05/16 06:07:48;;;;;;;8.43;2.33;;;15.10;69.20;;;;;;5033525;28;20021;-47
2022/05/16 06:10:17;;;;;;;7.40;2.47;;;15.20;69.70;;;;;;5048795;28;20091;-47
2022/05/16 06:12:44;;;;;;;6.90;2.23;;;15.30;69.00;;;;;;5050117;28;20082;-48
2022/05/16 06:15:13;;;;;;;5.68;2.05;;;15.40;69.30;;;;;;5035706;28;20033;-49
2022/05/16 06:17:46;;;;;;;4.97;2.25;;;15.50;69.10;;;;;;5033121;28;20083;-48
2022/05/16 06:20:14;;;;;;;10.45;2.38;;;15.60;68.50;;;;;;5034381;28;20052;-46
2022/05/16 06:22:41;;;;;;;5.20;2.00;;;15.80;67.70;;;;;;5033772;28;20025;-51
2022/05/16 06:27:59;;;;;;;5.03;1.98;;;16.10;66.90;;;;;;5033151;28;20032;-50
2022/05/16 06:30:25;;;;;;;13.10;2.53;;;16.20;66.50;;;;;;5030515;28;20410;-50
2022/05/16 06:32:52;;;;;;;7.53;2.63;;;16.40;65.70;;;;;;5011894;28;20112;-50
2022/05/16 06:35:19;;;;;;;7.30;2.28;;;16.40;64.30;;;;;;5034214;28;20102;-48
2022/05/16 06:37:46;;;;;;;5.72;2.75;;;16.50;64.90;;;;;;5032859;28;20112;-50
2022/05/16 06:40:15;;;;;;;6.43;2.42;;;16.50;64.20;;;;;;5033937;28;20029;-48
2022/05/16 06:42:42;;;;;;;7.95;2.30;;;16.60;64.50;;;;;;5015895;28;20601;-47
2022/05/16 06:45:09;;;;;;;4.03;2.17;;;16.70;64.40;;;;;;5034699;28;20029;-48
2022/05/16 06:47:36;;;;;;;5.22;2.05;;;16.80;64.10;;;;;;5033473;28;20107;-46
2022/05/16 06:50:03;;;;;;;6.35;2.17;;;16.90;64.50;;;;;;5033120;28;20017;-51
2022/05/16 06:52:30;;;;;;;7.22;2.53;;;16.90;64.40;;;;;;5033969;28;20065;-46
2022/05/16 06:54:57;;;;;;;7.75;2.15;;;16.90;64.80;;;;;;5034587;28;20041;-46
2022/05/16 06:57:30;;;;;;;7.40;2.85;;;17.10;64.10;;;;;;5040757;28;20132;-48
2022/05/16 06:59:59;;;;;;;7.53;1.95;;;17.40;64.50;;;;;;5034573;28;20087;-49
2022/05/16 07:02:26;;;;;;;4.03;1.95;;;17.40;63.90;;;;;;5050909;28;20046;-47
2022/05/16 07:04:53;;;;;;;6.03;2.45;;;17.50;63.40;;;;;;5034219;28;20104;-48
2022/05/16 07:07:22;;;;;;;5.90;3.38;;;17.50;62.70;;;;;;5030363;28;20017;-52
2022/05/16 07:09:55;;;;;;;6.47;2.17;;;17.40;63.80;;;;;;5032854;28;20612;-48
2022/05/16 07:12:22;;;;;;;5.50;3.65;;;17.50;63.80;;;;;;5033573;28;20180;-47
2022/05/16 07:14:49;;;;;;;6.80;2.20;;;17.50;63.10;;;;;;5034774;28;20037;-48
2022/05/16 07:17:15;;;;;;;4.72;2.10;;;17.60;63.80;;;;;;5048862;28;20036;-50
2022/05/16 07:19:49;;;;;;;5.75;2.03;;;17.80;63.20;;;;;;5034977;28;20039;-46
2022/05/16 07:22:19;;;;;;;11.07;2.35;;;18.20;62.60;;;;;;5039162;28;20498;-48
2022/05/16 07:24:45;;;;;;;;;;;18.40;59.70;;;;;;5029210;28;20112;-47
2022/05/16 07:29:58;;;;;;;7.57;2.40;;;18.90;59.80;;;;;;5032591;28;20121;-46
2022/05/16 07:32:33;;;;;;;5.90;3.05;;;19.20;59.50;;;;;;5019843;28;20029;-48
2022/05/16 07:35:05;;;;;;;5.35;2.15;;;19.70;58.00;;;;;;5030796;28;20057;-48
2022/05/16 07:37:31;;;;;;;7.82;1.90;;;20.10;56.60;;;;;;5018300;28;20025;-46
2022/05/16 07:39:58;;;;;;;4.60;1.95;;;21.00;55.00;;;;;;5033054;28;20034;-48
2022/05/16 07:42:25;;;;;;;6.90;1.70;;;21.50;54.20;;;;;;5030740;28;20098;-47
2022/05/16 07:44:51;;;;;;;4.70;2.20;;;21.50;51.90;;;;;;5062739;28;20049;-47
2022/05/16 07:47:18;;;;;;;7.63;2.33;;;21.50;53.80;;;;;;5047268;28;20025;-46
2022/05/16 07:49:45;;;;;;;6.43;2.47;;;21.50;53.60;;;;;;5049182;28;20511;-48
2022/05/16 07:52:11;;;;;;;7.55;2.78;;;21.70;53.10;;;;;;5031810;28;20370;-48
2022/05/16 07:54:38;;;;;;;6.45;1.90;;;22.00;50.90;;;;;;5039356;28;20025;-47
2022/05/16 07:57:05;;;;;;;5.97;2.25;;;22.10;51.60;;;;;;5042591;28;20482;-49
2022/05/16 07:59:32;;;;;;;5.97;2.03;;;22.30;50.90;;;;;;5030790;28;20481;-46
2022/05/16 08:01:57;;;;;;;5.88;2.33;;;22.20;51.20;;;;;;5027686;28;20056;-49
2022/05/16 08:04:23;;;;;;;5.35;2.50;;;21.90;52.20;;;;;;5032464;28;20067;-48
2022/05/16 08:06:50;;;;;;;7.15;2.20;;;21.40;53.50;;;;;;5017023;28;20096;-47
2022/05/16 08:12:03;;;;;;;6.60;2.42;;;20.90;55.50;;;;;;5000079;28;20057;-47
2022/05/16 08:14:30;;;;;;;6.20;2.33;;;20.70;55.50;;;;;;5014813;28;20033;-47
2022/05/16 08:16:57;;;;;;;8.85;2.35;;;20.60;56.80;;;;;;5018531;28;20037;-47
2022/05/16 08:19:29;;;;;;;5.47;2.15;;;20.80;57.20;;;;;;5018354;28;20037;-48
2022/05/16 08:21:56;;;;;;;6.10;2.40;;;21.20;56.40;;;;;;5031174;28;20033;-50
2022/05/16 08:24:22;;;;;;;5.07;2.33;;;21.70;55.20;;;;;;5011617;28;20379;-46
2022/05/16 08:26:49;;;;;;;6.30;2.75;;;22.40;53.10;;;;;;5013137;28;20033;-51
2022/05/16 08:29:16;;;;;;;5.25;2.20;;;22.90;51.00;;;;;;5005119;28;20431;-50
2022/05/16 08:31:43;;;;;;;7.95;2.75;;;23.50;50.20;;;;;;5011688;28;20069;-49
2022/05/16 08:34:09;;;;;;;5.43;2.08;;;23.90;47.90;;;;;;4995549;28;20026;-50
2022/05/16 08:42:10;;;;;;;7.50;2.35;;;24.90;49.10;;;;;;5012284;28;20036;-47
2022/05/16 08:44:41;;;;;;;7.22;2.75;;;25.00;47.00;;;;;;4995220;28;20100;-50
2022/05/16 08:47:46;;;;;;;6.05;3.28;;;24.50;48.10;;;;;;5011814;28;20037;-47
2022/05/16 08:50:34;;;;;;;8.07;2.65;;;24.40;46.80;;;;;;5029849;28;20045;-47
2022/05/16 08:53:07;;;;;;;6.50;2.45;;;23.90;47.80;;;;;;5022632;28;20037;-50
2022/05/16 08:55:45;;;;;;;7.03;2.08;;;24.00;48.40;;;;;;5011773;28;20091;-49
2022/05/16 08:58:33;;;;;;;5.53;2.33;;;23.80;47.80;;;;;;5051719;28;20095;-50
2022/05/16 09:01:24;;;;;;;5.88;2.28;;;23.90;49.20;;;;;;5022490;28;20090;-48
2022/05/16 09:04:14;;;;;;;5.10;2.35;;;24.10;48.50;;;;;;5031041;28;20116;-49
2022/05/16 09:06:56;;;;;;;5.57;2.38;;;24.40;48.60;;;;;;5021558;28;20026;-50
2022/05/16 09:09:40;;;;;;;5.05;1.80;;;24.50;47.00;;;;;;5031092;28;20043;-49
2022/05/16 09:12:16;;;;;;;5.78;2.03;;;24.50;46.10;;;;;;5029641;28;20148;-52
2022/05/16 09:14:55;;;;;;;7.57;2.88;;;24.80;46.70;;;;;;5029399;28;20029;-48
2022/05/16 09:17:58;;;;;;;12.90;2.30;;;24.90;46.70;;;;;;5046063;28;20034;-50
2022/05/16 09:21:01;;;;;;;7.00;2.75;;;24.70;47.30;;;;;;5034228;28;20105;-47
2022/05/16 09:24:04;;;;;;;7.13;2.35;;;24.90;45.30;;;;;;5029248;28;20346;-48
2022/05/16 09:26:51;;;;;;;5.50;2.40;;;25.10;45.70;;;;;;5028700;28;20087;-46
2022/05/16 09:29:32;;;;;;;7.45;2.60;;;25.20;46.30;;;;;;5037218;28;20347;-48
2022/05/16 09:32:15;;;;;;;6.53;2.20;;;25.30;44.30;;;;;;5037017;28;20029;-52
2022/05/16 09:34:42;;;;;;;4.35;1.85;;;25.40;44.70;;;;;;5037218;28;20462;-49
2022/05/16 09:37:09;;;;;;;6.32;2.03;;;25.30;44.90;;;;;;5036735;28;20105;-51
2022/05/16 09:39:36;;;;;;;3.50;1.58;;;25.10;45.50;;;;;;5030995;28;20033;-47
2022/05/16 09:42:13;;;;;;;4.65;1.95;;;25.00;45.60;;;;;;5034372;28;20018;-50
2022/05/16 09:44:48;;;;;;;9.32;2.38;;;25.00;46.60;;;;;;5036599;28;20109;-49
2022/05/16 09:47:34;;;;;;;7.03;2.33;;;24.90;45.20;;;;;;5018862;28;20045;-47
2022/05/16 09:50:03;;;;;;;6.95;2.83;;;24.60;46.40;;;;;;5022054;28;20025;-49
2022/05/16 09:52:33;;;;;;;6.70;2.17;;;24.70;46.60;;;;;;5036727;28;20025;-49
2022/05/16 09:55:10;;;;;;;6.15;2.53;;;24.70;46.80;;;;;;5036523;28;20048;-50
2022/05/16 09:58:03;;;;;;;5.50;2.78;;;24.40;45.90;;;;;;5029272;28;20064;-47
2022/05/16 10:00:53;;;;;;;8.65;2.13;;;24.30;48.80;;;;;;5029389;28;20455;-47
2022/05/16 10:03:28;;;;;;;9.10;2.33;;;24.40;47.40;;;;;;5018299;28;20328;-47
2022/05/16 10:06:04;;;;;;;7.47;1.77;;;24.60;48.80;;;;;;5017480;28;20092;-47
2022/05/16 10:08:36;;;;;;;3.65;1.70;;;25.00;47.40;;;;;;5017455;28;20104;-48
2022/05/16 10:11:17;;;;;;;3.88;1.52;;;25.20;46.40;;;;;;5017230;28;20030;-51
2022/05/16 10:13:44;;;;;;;6.90;2.13;;;25.40;46.60;;;;;;5016362;28;20035;-47
2022/05/16 10:16:14;;;;;;;5.30;2.20;;;25.20;46.10;;;;;;5016587;28;20418;-52
2022/05/16 10:18:50;;;;;;;;;;;25.30;44.40;;;;;;5017190;28;20030;-49
2022/05/16 10:21:41;;;;;;;9.73;2.75;;;25.00;45.10;;;;;;5020535;28;19917;-47
2022/05/16 10:24:12;;;;;;;6.47;2.47;;;25.20;46.60;;;;;;5016457;28;20037;-48
2022/05/16 10:26:43;;;;;;;5.63;1.85;;;25.00;45.50;;;;;;5010425;28;20447;-49
2022/05/16 10:29:16;;;;;;;6.53;2.17;;;24.80;46.60;;;;;;5017188;28;20027;-49
2022/05/16 10:35:11;;;;;;;6.10;2.58;;;24.40;47.30;;;;;;5014553;28;20080;-47
2022/05/16 10:37:46;;;;;;;5.18;1.70;;;24.60;49.60;;;;;;5022419;28;20030;-48
2022/05/16 10:40:41;;;;;;;8.73;2.20;;;24.40;47.30;;;;;;4992683;28;20037;-48
2022/05/16 10:43:45;;;;;;;7.35;1.85;;;24.90;49.70;;;;;;5012946;28;20410;-51
2022/05/16 10:46:19;;;;;;;7.45;1.83;;;24.90;46.70;;;;;;5000433;28;20034;-49
2022/05/16 10:48:50;;;;;;;4.75;2.30;;;25.10;48.70;;;;;;4997759;28;20060;-52
2022/05/16 10:51:42;;;;;;;5.53;2.33;;;25.00;45.80;;;;;;5014743;28;20030;-47
2022/05/16 10:54:31;;;;;;;4.18;1.85;;;24.90;46.70;;;;;;5012663;28;20030;-47
2022/05/16 10:57:21;;;;;;;5.18;1.90;;;24.90;46.90;;;;;;5016113;28;20104;-49
2022/05/16 11:00:06;;;;;;;6.50;2.55;;;24.90;46.50;;;;;;5019980;28;20030;-48
2022/05/16 11:02:55;;;;;;;5.28;2.33;;;25.20;47.00;;;;;;5020332;28;20034;-51
2022/05/16 11:05:34;;;;;;;5.18;2.60;;;25.10;46.70;;;;;;5014022;28;20029;-51
2022/05/16 11:08:02;;;;;;;8.32;1.88;;;24.90;45.30;;;;;;5012779;28;20033;-49
2022/05/16 11:10:52;;;;;;;5.97;2.33;;;24.90;47.10;;;;;;5013146;28;20033;-50
2022/05/16 11:13:48;;;;;;;6.00;2.40;;;24.90;45.70;;;;;;5011363;28;20483;-47
2022/05/16 11:16:26;;;;;;;5.07;2.17;;;24.80;45.90;;;;;;5011762;28;20049;-50
2022/05/16 11:19:23;;;;;;;6.70;2.20;;;24.90;46.10;;;;;;5011630;28;20541;-47
2022/05/16 11:22:17;;;;;;;5.90;2.00;;;24.90;45.90;;;;;;5012749;28;20381;-47
2022/05/16 11:25:09;;;;;;;7.18;2.45;;;24.60;45.50;;;;;;5024546;28;20025;-49
2022/05/16 11:28:01;;;;;;;7.35;2.30;;;24.50;46.50;;;;;;5003906;28;20026;-47
2022/05/16 11:30:56;;;;;;;8.18;2.28;;;24.60;46.30;;;;;;5012804;28;20037;-47
2022/05/16 11:33:55;;;;;;;7.05;1.95;;;24.40;48.00;;;;;;5009958;28;20041;-52
2022/05/16 11:36:59;;;;;;;7.45;1.90;;;24.70;47.40;;;;;;5010960;28;20030;-51
2022/05/16 11:39:40;;;;;;;5.65;2.20;;;24.60;44.80;;;;;;5010892;28;20049;-50
2022/05/16 11:42:19;;;;;;;8.60;2.50;;;24.80;45.20;;;;;;5011238;28;20045;-49
2022/05/16 11:45:18;;;;;;;6.80;2.40;;;24.90;46.00;;;;;;5005709;28;20022;-53
2022/05/16 11:47:59;;;;;;;;;;;25.20;43.70;;;;;;4995250;28;20410;-49
2022/05/16 11:50:41;;;;;;;5.53;2.03;;;25.40;45.70;;;;;;5008416;28;20182;-52
2022/05/16 11:53:38;;;;;;;5.65;2.03;;;25.20;46.00;;;;;;4994306;28;20535;-49
2022/05/16 12:02:07;;;;;;;5.45;1.85;;;25.70;47.10;;;;;;5012511;28;20041;-52
2022/05/16 12:04:44;;;;;;;7.07;1.90;;;26.10;44.90;;;;;;5030158;28;20037;-49
2022/05/16 12:07:19;;;;;;;6.80;2.30;;;25.90;43.10;;;;;;5014292;28;20109;-47
2022/05/16 12:09:58;;;;;;;10.63;2.50;;;26.30;43.80;;;;;;5012801;28;20053;-50
2022/05/16 12:12:46;;;;;;;4.38;2.22;;;26.20;43.00;;;;;;5031446;28;20056;-46
2022/05/16 12:15:24;;;;;;;5.13;2.28;;;26.40;43.10;;;;;;5019911;28;20038;-47
2022/05/16 12:18:06;;;;;;;5.53;2.25;;;26.40;43.40;;;;;;5011514;28;20025;-49
2022/05/16 12:20:44;;;;;;;9.07;2.72;;;26.40;43.80;;;;;;5012480;28;20056;-49
2022/05/16 12:23:16;;;;;;;7.60;2.28;;;26.40;44.60;;;;;;5018616;28;20033;-52
2022/05/16 12:25:43;;;;;;;6.55;2.78;;;26.50;45.20;;;;;;5020567;28;20029;-49
2022/05/16 12:28:16;;;;;;;6.30;2.63;;;26.40;42.20;;;;;;4994651;28;20034;-50
2022/05/16 12:30:54;;;;;;;5.60;2.38;;;26.50;45.30;;;;;;5014173;28;20451;-48
2022/05/16 12:33:41;;;;;;;7.53;2.10;;;26.60;42.40;;;;;;5011702;28;20025;-49
2022/05/16 12:36:20;;;;;;;4.35;1.90;;;26.30;43.40;;;;;;5018984;28;20026;-47
2022/05/16 12:39:37;;;;;;;5.97;2.20;;;26.40;41.40;;;;;;5023904;28;20583;-51
2022/05/16 12:42:23;;;;;;;5.60;2.05;;;26.30;44.10;;;;;;5009162;28;20044;-47
2022/05/16 12:45:26;;;;;;;6.05;2.65;;;26.20;44.40;;;;;;5019203;28;20036;-49
2022/05/16 12:48:27;;;;;;;7.07;2.70;;;26.30;44.10;;;;;;5016224;28;20037;-48
2022/05/16 12:51:31;;;;;;;5.10;2.30;;;26.30;43.40;;;;;;5012216;28;20030;-48
2022/05/16 12:54:30;;;;;;;6.93;1.95;;;26.40;45.90;;;;;;4990670;28;20112;-53
2022/05/16 12:57:06;;;;;;;16.30;2.88;;;26.20;45.60;;;;;;5006481;28;20049;-47
2022/05/16 13:00:25;;;;;;;7.25;2.80;;;26.10;42.50;;;;;;5014379;28;20060;-51
2022/05/16 13:03:24;;;;;;;7.03;2.88;;;25.80;42.90;;;;;;4999407;28;20038;-49
2022/05/16 13:06:01;;;;;;;;;;;25.70;44.30;;;;;;5039282;28;20042;-48
2022/05/16 13:08:47;;;;;;;4.22;2.35;;;25.80;45.40;;;;;;5011242;28;19913;-52
2022/05/16 13:11:45;;;;;;;5.13;2.38;;;25.50;43.50;;;;;;5025580;28;20439;-51
2022/05/16 13:15:10;;;;;;;6.90;3.10;;;25.70;45.40;;;;;;4983957;28;20046;-52
2022/05/16 13:17:58;;;;;;;7.70;2.00;;;25.80;44.90;;;;;;4988568;28;20030;-50
2022/05/16 13:20:37;;;;;;;7.22;2.33;;;25.80;45.00;;;;;;4970395;28;20055;-50
2022/05/16 13:23:04;;;;;;;7.15;2.58;;;25.70;43.20;;;;;;5000298;28;20050;-51
2022/05/16 13:29:21;;;;;;;5.57;2.30;;;25.60;42.60;;;;;;5027907;28;20033;-52
2022/05/16 13:31:07;;;;;;;5.82;2.22;;;25.40;45.20;;;;;;5016398;28;20036;-48
2022/05/16 13:33:37;;;;;;;5.63;2.60;;;25.30;43.60;;;;;;5026082;28;20029;-48
2022/05/16 13:36:19;;;;;;;9.90;3.25;;;25.30;42.60;;;;;;5020810;28;20026;-48
2022/05/16 13:39:00;;;;;;;6.13;2.22;;;25.20;44.50;;;;;;5030314;28;20487;-49
2022/05/16 13:41:30;;;;;;;8.02;2.97;;;25.30;45.00;;;;;;5014829;28;20034;-49
2022/05/16 13:43:58;;;;;;;4.88;2.05;;;25.20;43.60;;;;;;5030609;28;20500;-49
2022/05/16 13:46:27;;;;;;;9.70;2.30;;;25.10;44.70;;;;;;5029136;28;20458;-49
2022/05/16 13:48:58;;;;;;;;;;;25.10;44.50;;;;;;5031446;28;20102;-49
2022/05/16 13:51:25;;;;;;;5.70;2.28;;;25.10;45.30;;;;;;5012103;28;19913;-50
2022/05/16 13:53:54;;;;;;;8.25;2.30;;;25.30;44.70;;;;;;5013621;28;20431;-49
2022/05/16 13:56:59;;;;;;;7.28;2.20;;;25.40;43.80;;;;;;5014668;28;20046;-47
2022/05/16 13:59:30;;;;;;;6.43;2.60;;;25.30;44.80;;;;;;5009457;28;20053;-51
2022/05/16 14:02:22;;;;;;;6.65;3.75;;;25.40;45.00;;;;;;5012840;28;20042;-46
2022/05/16 14:04:50;;;;;;;8.38;2.78;;;25.50;47.00;;;;;;5010258;28;20426;-46
2022/05/16 14:07:25;;;;;;;11.20;2.92;;;25.40;49.00;;;;;;5016664;28;20470;-47
2022/05/16 14:10:02;;;;;;;7.85;2.63;;;25.20;49.90;;;;;;5018814;28;20130;-48